Latest Weather Observations for Condobolin Airport

IDN60801

Issued at 10:13 pm EDT Monday 19 November 2018 (issued every 10 minutes, with the page automatically refreshed every 10 minutes)

About weather observations | Map of weather stations | Latest weather observations for NSW | Other Formats
Station Details ID: 050137 Name: CONDOBOLIN AIRPORT AWS Lat: -33.07 Lon: 147.21 Height: 192.6 m
Data from the previous 72 hours. | See also: Recent months at Condobolin Airport
Date/Time
EDT
Temp
°C
App
Temp
°C
Dew
Point
°C
Rel
Hum
%
Delta-T
°C
Wind Press
QNH
hPa
Press
MSL
hPa
Rain since
9am
mm
Dir  Spd
km/h
Gust
km/h
Spd
kts
Gust
kts
19/10:00pm 23.5 23.4 13.9 55 5.7 NE 7 11 4 6 1013.0 1012.3 0.0
19/09:30pm 24.6 23.4 14.1 52 6.2 NNE 13 15 7 8 1012.8 1012.1 0.0
19/09:00pm 25.4 23.6 13.3 47 7.1 N 15 19 8 10 1012.8 1012.1 0.0
19/08:30pm 26.1 24.2 12.9 44 7.7 N 15 20 8 11 1012.5 1011.8 0.0
19/08:00pm 26.9 24.0 12.2 40 8.6 NNE 19 22 10 12 1012.4 1011.7 0.0
19/07:30pm 27.6 23.9 11.6 37 9.3 NNE 22 30 12 16 1012.2 1011.5 0.0
19/07:00pm 28.1 24.2 10.8 34 9.9 NNE 22 30 12 16 1011.9 1011.2 0.0
19/06:30pm 29.0 25.8 11.1 33 10.3 NE 19 32 10 17 1011.8 1011.1 0.0
19/06:00pm 29.7 25.8 10.8 31 10.9 NE 22 30 12 16 1011.8 1011.1 0.0
19/05:30pm 29.1 25.4 10.3 31 10.7 NNE 20 28 11 15 1011.9 1011.2 0.0
19/05:00pm 29.7 25.4 10.8 31 10.9 NNE 24 32 13 17 1012.1 1011.4 0.0
19/04:30pm 28.5 24.9 10.7 33 10.2 NE 20 30 11 16 1012.4 1011.7 0.0
19/04:00pm 28.4 24.9 11.0 34 10.0 NE 20 28 11 15 1012.8 1012.1 0.0
19/03:30pm 30.0 26.5 11.0 31 11.0 NE 20 30 11 16 1013.1 1012.4 0.0
19/03:00pm 28.5 24.9 10.7 33 10.2 NE 20 30 11 16 1013.6 1012.9 0.0
19/02:30pm 28.6 25.4 11.2 34 10.0 NNE 19 33 10 18 1014.2 1013.4 0.0
19/02:00pm 28.6 24.9 11.6 34 9.9 NE 22 30 12 16 1014.5 1013.7 0.0
19/01:30pm 27.6 24.0 12.0 38 9.1 NNE 22 33 12 18 1015.1 1014.4 0.0
19/01:00pm 27.2 23.2 11.7 38 9.0 N 24 39 13 21 1015.9 1015.2 0.0
19/12:30pm 27.5 23.8 12.7 40 8.7 N 24 35 13 19 1016.4 1015.7 0.0
19/12:00pm 27.1 22.4 12.0 39 8.8 N 28 43 15 23 1016.9 1016.2 0.0
19/11:30am 25.9 20.7 11.6 40 8.2 NNE 30 44 16 24 1017.4 1016.7 0.0
19/11:00am 25.6 20.3 12.4 43 7.7 N 32 44 17 24 1017.8 1017.1 0.0
19/10:30am 24.1 18.8 11.4 45 7.2 NNE 30 39 16 21 1018.2 1017.5 0.0
19/10:00am 23.8 18.2 11.5 46 7.0 NNE 32 44 17 24 1018.4 1017.7 0.0
19/09:30am 23.3 18.1 11.7 48 6.6 NNE 30 43 16 23 1018.5 1017.8 0.0
19/09:00am 22.2 17.9 10.7 48 6.4 NE 24 35 13 19 1018.8 1018.1 0.0
19/08:30am 21.1 15.9 10.3 50 5.9 NE 28 33 15 18 1018.8 1018.1 0.0
19/08:00am 20.1 15.9 9.9 52 5.5 NE 22 32 12 17 1018.7 1018.0 0.0
19/07:30am 19.1 14.0 9.3 53 5.2 ENE 26 35 14 19 1018.5 1017.8 0.0
19/07:00am 18.4 13.6 8.7 53 5.1 ENE 24 33 13 18 1018.4 1017.7 0.0
19/06:30am 17.6 13.2 7.6 52 5.1 ENE 20 26 11 14 1018.2 1017.5 0.0
19/06:00am 17.4 12.1 6.9 50 5.3 ENE 24 32 13 17 1017.6 1016.9 0.0
19/05:30am 17.6 11.9 6.8 49 5.4 ENE 26 33 14 18 1017.4 1016.7 0.0
19/05:00am 17.7 12.1 7.2 50 5.3 ENE 26 35 14 19 1017.2 1016.5 0.0
19/04:30am 18.0 11.8 7.7 51 5.3 ENE 30 41 16 22 1017.3 1016.6 0.0
19/04:00am 18.0 12.0 8.8 55 4.8 ENE 30 39 16 21 1017.6 1016.9 0.0
19/03:30am 18.2 14.3 9.3 56 4.7 ENE 20 26 11 14 1017.7 1017.0 0.0
19/03:00am 18.6 13.9 9.1 54 5.0 NE 24 32 13 17 1017.8 1017.1 0.0
19/02:30am 18.9 14.2 9.1 53 5.2 NE 24 33 13 18 1017.6 1016.9 0.0
19/02:00am 19.3 15.0 9.5 53 5.2 ENE 22 30 12 16 1017.5 1016.8 0.0
19/01:30am 20.0 16.1 9.6 51 5.6 ENE 20 28 11 15 1017.7 1017.0 0.0
19/01:00am 20.5 16.8 10.3 52 5.6 ENE 20 26 11 14 1017.6 1016.9 0.0
19/12:30am 21.2 16.7 10.1 49 6.1 ENE 24 30 13 16 1017.4 1016.7 0.0
19/12:00am 21.8 17.3 10.0 47 6.4 ENE 24 33 13 18 1017.2 1016.5 0.0
 
Date/Time
EDT
Temp
°C
App
Temp
°C
Dew
Point
°C
Rel
Hum
%
Delta-T
°C
Wind Press
QNH
hPa
Press
MSL
hPa
Rain since
9am
mm
Dir  Spd
km/h
Gust
km/h
Spd
kts
Gust
kts
18/11:30pm 22.6 17.6 9.7 44 7.0 ENE 26 33 14 18 1016.8 1016.1 0.0
18/11:00pm 23.1 19.0 8.0 38 8.0 E 19 28 10 15 1016.4 1015.7 0.0
18/10:30pm 23.6 19.7 7.3 35 8.6 E 17 24 9 13 1016.2 1015.5 0.0
18/10:00pm 22.7 20.2 6.5 35 8.3 SE 9 11 5 6 1016.0 1015.3 0.0
18/09:30pm 23.6 20.6 6.0 32 9.0 ESE 11 15 6 8 1015.7 1015.0 0.0
18/09:00pm 24.5 21.3 5.3 29 9.8 SE 11 15 6 8 1015.4 1014.7 0.0
18/08:30pm 25.5 21.8 4.6 26 10.6 SE 13 17 7 9 1015.3 1014.6 0.0
18/08:00pm 26.4 22.5 3.6 23 11.4 SE 13 19 7 10 1015.2 1014.5 0.0
18/07:30pm 27.6 22.9 3.3 21 12.2 ESE 17 24 9 13 1015.0 1014.3 0.0
18/07:00pm 28.4 24.1 3.3 20 12.7 ESE 15 20 8 11 1015.0 1014.3 0.0
18/06:30pm 28.2 23.4 2.4 19 12.8 ENE 17 26 9 14 1014.8 1014.1 0.0
18/06:00pm 28.9 24.6 3.0 19 13.0 E 15 24 8 13 1014.8 1014.1 0.0
18/05:30pm 29.3 24.9 2.5 18 13.4 E 15 26 8 14 1014.9 1014.2 0.0
18/05:00pm 29.7 25.1 3.6 19 13.3 ENE 17 26 9 14 1015.0 1014.3 0.0
18/04:30pm 29.3 25.0 3.3 19 13.2 E 15 24 8 13 1015.2 1014.5 0.0
18/04:00pm 29.1 25.7 3.9 20 12.9 ESE 11 28 6 15 1015.4 1014.7 0.0
18/03:30pm 28.4 23.9 4.0 21 12.5 ENE 17 35 9 19 1015.8 1015.1 0.0
18/03:00pm 28.3 23.9 4.6 22 12.2 NNE 17 28 9 15 1016.3 1015.6 0.0
18/02:30pm 27.7 23.4 5.3 24 11.7 ENE 17 35 9 19 1016.7 1016.0 0.0
18/02:00pm 27.5 22.9 5.7 25 11.4 E 19 30 10 16 1017.3 1016.6 0.0
18/01:30pm 27.0 23.3 6.4 27 10.9 NE 15 24 8 13 1017.7 1017.0 0.0
18/01:00pm 26.8 21.9 6.8 28 10.6 E 22 32 12 17 1018.3 1017.6 0.0
18/12:30pm 26.9 22.6 7.9 30 10.3 ENE 20 32 11 17 1018.7 1018.0 0.0
18/12:00pm 26.3 21.2 7.8 31 10.0 ENE 24 32 13 17 1019.1 1018.4 0.0
18/11:30am 25.5 21.9 8.5 34 9.2 E 17 28 9 15 1019.7 1019.0 0.0
18/11:00am 24.0 19.8 8.4 37 8.4 ENE 20 33 11 18 1020.1 1019.4 0.0
18/10:30am 24.1 19.3 8.9 38 8.3 ENE 24 35 13 19 1020.2 1019.5 0.0
18/10:00am 22.4 18.4 9.2 43 7.1 ENE 20 32 11 17 1020.4 1019.7 0.0
18/09:30am 21.3 16.9 8.9 45 6.6 ENE 22 30 12 16 1020.7 1020.0 0.0
18/09:00am 20.0 15.5 8.4 47 6.1 E 22 33 12 18 1020.7 1020.0 0.0
18/08:30am 19.3 14.4 8.6 50 5.6 E 24 33 13 18 1020.5 1019.8 0.0
18/08:00am 18.8 14.8 9.0 53 5.2 E 20 30 11 16 1020.4 1019.7 0.0
18/07:30am 17.8 14.2 9.7 59 4.3 ESE 19 26 10 14 1020.2 1019.5 0.0
18/07:00am 16.7 13.4 9.4 62 3.8 ESE 17 24 9 13 1020.1 1019.4 0.0
18/06:30am 15.9 12.9 9.3 65 3.4 SE 15 20 8 11 1019.8 1019.1 0.0
18/06:00am 15.4 12.8 9.5 68 3.1 SE 13 17 7 9 1019.3 1018.7 0.0
18/05:30am 16.0 13.5 9.7 66 3.3 ESE 13 17 7 9 1019.0 1018.3 0.0
18/05:00am 16.6 13.4 9.8 64 3.6 ESE 17 20 9 11 1018.7 1018.0 0.0
18/04:30am 16.9 14.0 9.8 63 3.8 ESE 15 19 8 10 1018.5 1017.8 0.0
18/04:00am 17.6 14.0 10.0 61 4.1 ESE 19 24 10 13 1018.3 1017.6 0.0
18/03:30am 18.0 14.5 10.1 60 4.2 ESE 19 26 10 14 1018.1 1017.4 0.0
18/03:00am 18.3 14.2 10.2 59 4.4 ESE 22 28 12 15 1018.0 1017.3 0.0
18/02:30am 18.7 14.3 10.3 58 4.5 ESE 24 32 13 17 1018.0 1017.3 0.0
18/02:00am 19.1 14.7 10.4 57 4.7 ESE 24 32 13 17 1017.9 1017.2 0.0
18/01:30am 19.5 15.1 10.5 56 4.9 ESE 24 32 13 17 1018.1 1017.4 0.0
18/01:00am 20.2 15.9 10.6 54 5.3 E 24 35 13 19 1017.9 1017.2 0.0
18/12:30am 20.7 15.6 10.5 52 5.6 E 28 41 15 22 1017.8 1017.1 0.0
18/12:00am 21.3 16.2 10.5 50 5.9 E 28 37 15 20 1017.5 1016.8 0.0
 
Date/Time
EDT
Temp
°C
App
Temp
°C
Dew
Point
°C
Rel
Hum
%
Delta-T
°C
Wind Press
QNH
hPa
Press
MSL
hPa
Rain since
9am
mm
Dir  Spd
km/h
Gust
km/h
Spd
kts
Gust
kts
17/11:30pm 22.1 16.2 10.3 47 6.5 ESE 32 43 17 23 1017.2 1016.5 0.0
17/11:00pm 23.1 18.4 9.1 41 7.6 ESE 24 33 13 18 1016.9 1016.2 0.0
17/10:30pm 23.4 20.7 9.0 40 7.8 SE 13 17 7 9 1016.8 1016.1 0.0
17/10:00pm 24.4 20.9 7.1 33 9.1 ESE 15 22 8 12 1016.6 1015.9 0.0
17/09:30pm 22.0 18.5 1.1 25 9.7 SSW 9 17 5 9 1016.4 1015.7 0.0
17/09:00pm 22.8 19.3 -1.3 20 10.7 SW 7 9 4 5 1015.8 1015.1 0.0
17/08:30pm 24.2 20.3 -1.6 18 11.6 W 9 13 5 7 1015.6 1014.9 0.0
17/08:00pm 25.3 20.9 -2.3 16 12.3 WSW 11 15 6 8 1015.5 1014.8 0.0
17/07:30pm 27.0 21.5 -1.8 15 13.1 SW 17 20 9 11 1015.2 1014.5 0.0
17/07:00pm 27.9 23.0 -3.0 13 13.9 SW 13 17 7 9 1014.9 1014.2 0.0
17/06:30pm 28.0 22.4 -3.0 13 14.0 SW 17 24 9 13 1014.8 1014.1 0.0
17/06:00pm 28.8 24.0 -2.3 13 14.3 WSW 13 22 7 12 1014.7 1014.0 0.0
17/05:30pm 29.0 23.1 -2.2 13 14.4 S 19 30 10 16 1014.9 1014.2 0.0
17/05:00pm 29.4 23.8 -2.9 12 14.7 SW 17 30 9 16 1014.8 1014.1 0.0
17/04:30pm 29.6 24.8 -2.8 12 14.8 SSW 13 35 7 19 1014.8 1014.1 0.0
17/04:00pm 29.8 25.1 -1.5 13 14.7 SSW 13 32 7 17 1015.1 1014.4 0.0
17/03:30pm 28.9 22.8 -2.3 13 14.3 SW 20 32 11 17 1015.3 1014.6 0.0
17/03:00pm 29.2 23.8 -1.0 14 14.2 S 17 26 9 14 1015.6 1014.9 0.0
17/02:30pm 28.3 21.9 -1.7 14 13.9 SW 22 32 12 17 1015.7 1015.0 0.0
17/02:00pm 28.1 23.0 -1.9 14 13.8 SSW 15 24 8 13 1016.1 1015.4 0.0
17/01:30pm 28.6 23.2 -1.5 14 14.0 WSW 17 35 9 19 1016.5 1015.8 0.0
17/01:00pm 28.0 22.8 -3.0 13 13.9 SSW 15 30 8 16 1016.7 1016.0 0.0
17/12:30pm 27.4 21.4 -3.4 13 13.7 SSW 19 32 10 17 1017.0 1016.3 0.0
17/12:00pm 26.8 21.5 -3.9 13 13.4 S 15 24 8 13 1017.4 1016.7 0.0
17/11:30am 26.3 20.3 -3.3 14 13.1 S 19 33 10 18 1017.6 1016.9 0.0
17/11:00am 26.6 21.6 -1.3 16 12.8 SSE 15 26 8 14 1017.8 1017.1 0.0
17/10:30am 25.7 20.0 -0.4 18 12.1 S 19 30 10 16 1017.9 1017.2 0.0
17/10:00am 24.4 19.9 1.9 23 10.8 SSE 15 22 8 12 1017.8 1017.1 0.0
17/09:30am 23.6 20.5 3.5 27 9.9 SSW 9 19 5 10 1017.8 1017.1 0.0
17/09:00am 21.5 18.7 3.2 30 8.8 S 7 11 4 6 1017.7 1017.0 0.0
17/08:30am 20.2 17.4 3.0 32 8.2 S 7 13 4 7 1017.4 1016.7 0.0
17/08:00am 19.1 16.6 4.5 38 7.1 SSW 7 11 4 6 1017.3 1016.6 0.0
17/07:30am 18.1 17.0 5.3 43 6.3 CALM 0 0 0 0 1017.1 1016.4 0.0
17/07:00am 14.4 13.4 10.2 76 2.2 W 6 7 3 4 1016.9 1016.2 0.0
17/06:30am 12.0 10.6 8.7 80 1.7 NNW 6 7 3 4 1016.7 1016.0 0.0
17/06:00am 11.5 9.9 8.2 80 1.6 S 6 11 3 6 1016.4 1015.7 0.0
17/05:30am 12.2 11.9 8.7 79 1.8 CALM 0 0 0 0 1016.2 1015.5 0.0
17/05:00am 12.2 11.8 8.3 77 1.9 CALM 0 0 0 0 1015.8 1015.1 0.0
17/04:30am 13.2 12.3 7.9 70 2.6 WSW 2 7 1 4 1015.6 1014.9 0.0
17/04:00am 12.8 11.0 7.9 72 2.4 W 7 7 4 4 1015.5 1014.8 0.0
17/03:30am 13.8 12.1 8.4 70 2.7 W 7 9 4 5 1015.5 1014.8 0.0
17/03:00am 14.6 12.6 6.2 57 4.1 W 6 6 3 3 1015.7 1015.0 0.0
17/02:30am 14.6 12.6 6.4 58 4.0 WNW 6 6 3 3 1015.9 1015.2 0.0
17/02:00am 15.6 14.5 7.1 57 4.2 WNW 2 7 1 4 1016.0 1015.3 0.0
17/01:30am 14.0 13.6 8.4 69 2.8 CALM 0 0 0 0 1016.3 1015.6 0.0
17/01:00am 15.3 14.6 6.8 57 4.2 CALM 0 0 0 0 1016.5 1015.8 0.0
17/12:30am 17.0 15.6 3.3 40 6.4 CALM 0 0 0 0 1016.7 1016.0 0.0
17/12:00am 17.7 14.8 2.8 37 6.9 WSW 7 9 4 5 1016.9 1016.2 0.0
 
Date/Time
EDT
Temp
°C
App
Temp
°C
Dew
Point
°C
Rel
Hum
%
Delta-T
°C
Wind Press
QNH
hPa
Press
MSL
hPa
Rain since
9am
mm
Dir  Spd
km/h
Gust
km/h
Spd
kts
Gust
kts
16/11:30pm 18.0 14.5 1.1 32 7.6 SW 9 11 5 6 1016.9 1016.2 0.0
16/11:00pm 18.9 15.8 1.4 31 7.9 SW 7 9 4 5 1017.0 1016.3 0.0
16/10:30pm 19.0 15.2 -0.4 27 8.5 SW 9 11 5 6 1016.9 1016.2 0.0

Other Formats:

Comma delimited format used in spreadsheet applications
http://www.bom.gov.au/fwo/IDN60801/IDN60801.95708.axf

JavaScript Object Notation format (JSON) in row-major order
http://www.bom.gov.au/fwo/IDN60801/IDN60801.95708.json